QFA100 EGLL-YSSY
Flight info
| Callsign | QFA100 |
|---|---|
| Flight time | N/A |
| Altitude | 33000 |
| Route | DET L6 DVR UL9 KONAN UL607 SPI DCT BOMBI DCT DETEV DCT DINKU DCT BESNI DCT ALUTU DCT ESEGA DCT STEIN DCT TEGRI DCT ZUBOK DCT DINRO N743 UDROS UM859 KARDE UN644 ROLIN N644 LAGAS M747 SUBUT T923 ERLEV M11 RODAR A909 NINOP B475 DAVET P173 TAPIS L509 SULOM A466 ASARI L509 GUGIP/N0501F350 L509 GGC R460 CEA L507 BKK/N0496F370 N506 ELMOP R468 SAPEN/K0919F370 R468 TSH M768 MOXON/N0496F370 M768 PORAK/N0489F390 M768 DN J251 TN A464 MIGAX Y139 IGNIX/N0489F410 Y161 OVNOM H652 LALIB/N0444F190 W702 OLTIN H201 MEPIL |
| Aircraft | A35K/H-SDE2E3GHIJ3J4J5LM1ORWXY/LB1D1 |
Departure
| Time | N/A |
|---|---|
| Airport | London Heathrow Airport (EGLL) |
Arrival
| Time | 2026-04-30 04:00 |
|---|---|
| Airport | Sydney Kingsford Smith International Airport (YSSY) |
| Time | Latitude | Longitude | Altitude | Speed | Heading |
|---|---|---|---|---|---|
| 2026-04-30 03:24 | -28.38537 | 146.12702 | 39263 ft | 522 kts | 143° |
| 2026-04-30 03:24 | -28.60750 | 146.33799 | 39270 ft | 522 kts | 143° |
| 2026-04-30 03:25 | -28.83127 | 146.55172 | 39274 ft | 524 kts | 142° |
| 2026-04-30 03:25 | -29.05328 | 146.76501 | 39279 ft | 524 kts | 142° |
| 2026-04-30 03:26 | -29.27633 | 146.98056 | 39281 ft | 524 kts | 142° |
| 2026-04-30 03:26 | -29.46121 | 147.16018 | 39286 ft | 524 kts | 142° |
| 2026-04-30 03:27 | -29.68389 | 147.37772 | 39289 ft | 523 kts | 142° |
| 2026-04-30 03:27 | -29.90417 | 147.59421 | 39298 ft | 523 kts | 142° |
| 2026-04-30 03:28 | -30.12565 | 147.81321 | 39306 ft | 522 kts | 142° |
| 2026-04-30 03:28 | -30.34469 | 148.03111 | 39309 ft | 520 kts | 142° |
| 2026-04-30 03:29 | -30.56438 | 148.25101 | 39309 ft | 520 kts | 142° |
| 2026-04-30 03:29 | -30.78327 | 148.47147 | 39312 ft | 519 kts | 142° |
| 2026-04-30 03:30 | -31.03611 | 148.72785 | 39319 ft | 518 kts | 142° |
| 2026-04-30 03:30 | -31.21637 | 148.91179 | 39332 ft | 517 kts | 141° |
| 2026-04-30 03:31 | -31.43258 | 149.13372 | 39340 ft | 517 kts | 141° |
| 2026-04-30 03:31 | -31.64832 | 149.35653 | 39348 ft | 516 kts | 141° |
| 2026-04-30 03:32 | -31.86340 | 149.58012 | 39357 ft | 515 kts | 141° |
| 2026-04-30 03:32 | -32.07771 | 149.80436 | 39366 ft | 515 kts | 141° |
| 2026-04-30 03:33 | -32.29125 | 150.02926 | 39369 ft | 514 kts | 141° |
| 2026-04-30 03:33 | -32.39800 | 150.14227 | 39081 ft | 512 kts | 141° |
| 2026-04-30 03:33 | -32.50139 | 150.25202 | 36280 ft | 506 kts | 140° |
| 2026-04-30 03:34 | -32.60102 | 150.35813 | 33491 ft | 496 kts | 139° |
| 2026-04-30 03:34 | -32.62668 | 150.38553 | 32541 ft | 497 kts | 139° |
| 2026-04-30 03:34 | -32.65245 | 150.41306 | 31582 ft | 499 kts | 139° |
| 2026-04-30 03:34 | -32.67828 | 150.44067 | 30661 ft | 500 kts | 139° |
| 2026-04-30 03:35 | -32.70422 | 150.46842 | 29672 ft | 501 kts | 139° |
| 2026-04-30 03:35 | -32.73000 | 150.49603 | 28876 ft | 497 kts | 139° |
| 2026-04-30 03:35 | -32.75524 | 150.52307 | 28282 ft | 490 kts | 139° |
| 2026-04-30 03:35 | -32.78074 | 150.55043 | 27670 ft | 484 kts | 139° |
| 2026-04-30 03:36 | -32.80515 | 150.57664 | 27061 ft | 479 kts | 139° |
| 2026-04-30 03:36 | -32.82977 | 150.60309 | 26445 ft | 473 kts | 139° |
| 2026-04-30 03:36 | -32.85412 | 150.62925 | 25836 ft | 469 kts | 139° |
| 2026-04-30 03:36 | -32.87813 | 150.65509 | 25239 ft | 464 kts | 139° |
| 2026-04-30 03:37 | -32.90201 | 150.68080 | 24647 ft | 459 kts | 138° |
| 2026-04-30 03:37 | -32.92554 | 150.70617 | 24049 ft | 455 kts | 138° |
| 2026-04-30 03:37 | -32.94885 | 150.73130 | 23395 ft | 450 kts | 138° |
| 2026-04-30 03:37 | -32.97189 | 150.75617 | 22816 ft | 443 kts | 138° |
| 2026-04-30 03:38 | -32.99460 | 150.78069 | 22215 ft | 438 kts | 138° |
| 2026-04-30 03:38 | -33.01707 | 150.80495 | 21662 ft | 433 kts | 138° |
| 2026-04-30 03:38 | -33.03925 | 150.82894 | 21087 ft | 428 kts | 137° |
| 2026-04-30 03:38 | -33.06118 | 150.85267 | 20518 ft | 424 kts | 137° |
| 2026-04-30 03:39 | -33.08292 | 150.87622 | 19940 ft | 421 kts | 137° |
| 2026-04-30 03:39 | -33.10448 | 150.89959 | 19369 ft | 417 kts | 137° |
| 2026-04-30 03:39 | -33.12593 | 150.92285 | 18790 ft | 415 kts | 137° |
| 2026-04-30 03:39 | -33.14723 | 150.94597 | 18153 ft | 412 kts | 137° |
| 2026-04-30 03:40 | -33.16832 | 150.96887 | 17570 ft | 408 kts | 137° |
| 2026-04-30 03:40 | -33.18924 | 150.99161 | 16994 ft | 405 kts | 137° |
| 2026-04-30 03:40 | -33.20998 | 151.01415 | 16412 ft | 402 kts | 137° |
| 2026-04-30 03:40 | -33.23155 | 151.03457 | 15765 ft | 401 kts | 147° |
| 2026-04-30 03:41 | -33.25742 | 151.04797 | 14734 ft | 411 kts | 166° |
| 2026-04-30 03:41 | -33.28557 | 151.05410 | 14011 ft | 410 kts | 171° |
| 2026-04-30 03:41 | -33.31366 | 151.05916 | 13342 ft | 405 kts | 171° |
| 2026-04-30 03:41 | -33.34129 | 151.06422 | 12711 ft | 400 kts | 171° |
| 2026-04-30 03:42 | -33.36864 | 151.06933 | 12093 ft | 395 kts | 170° |
| 2026-04-30 03:42 | -33.39566 | 151.07450 | 11434 ft | 390 kts | 170° |
| 2026-04-30 03:42 | -33.42205 | 151.07950 | 11137 ft | 376 kts | 170° |
| 2026-04-30 03:42 | -33.44732 | 151.08432 | 11039 ft | 357 kts | 169° |
| 2026-04-30 03:43 | -33.47058 | 151.08876 | 10937 ft | 340 kts | 169° |
| 2026-04-30 03:43 | -33.49412 | 151.09324 | 10832 ft | 325 kts | 169° |
| 2026-04-30 03:43 | -33.51597 | 151.09742 | 10678 ft | 311 kts | 169° |
| 2026-04-30 03:43 | -33.53667 | 151.10139 | 10538 ft | 298 kts | 169° |
| 2026-04-30 03:44 | -33.55679 | 151.10526 | 10415 ft | 288 kts | 169° |
| 2026-04-30 03:44 | -33.57659 | 151.10911 | 10049 ft | 291 kts | 169° |
| 2026-04-30 03:44 | -33.59677 | 151.11302 | 9674 ft | 294 kts | 169° |
| 2026-04-30 03:44 | -33.61690 | 151.11694 | 9353 ft | 292 kts | 169° |
| 2026-04-30 03:45 | -33.63722 | 151.12097 | 9162 ft | 290 kts | 168° |
| 2026-04-30 03:45 | -33.65704 | 151.12489 | 8748 ft | 283 kts | 169° |
| 2026-04-30 03:45 | -33.67663 | 151.12875 | 8507 ft | 287 kts | 168° |
| 2026-04-30 03:45 | -33.69626 | 151.13262 | 8334 ft | 285 kts | 168° |
| 2026-04-30 03:46 | -33.71053 | 151.13546 | 8220 ft | 285 kts | 168° |
| 2026-04-30 03:46 | -33.73004 | 151.13927 | 8061 ft | 283 kts | 169° |
| 2026-04-30 03:46 | -33.74948 | 151.14300 | 7911 ft | 283 kts | 169° |
| 2026-04-30 03:46 | -33.76894 | 151.14676 | 7735 ft | 282 kts | 169° |
| 2026-04-30 03:47 | -33.78837 | 151.15051 | 7591 ft | 282 kts | 169° |
| 2026-04-30 03:47 | -33.80783 | 151.15342 | 7434 ft | 283 kts | 177° |
| 2026-04-30 03:47 | -33.82739 | 151.15064 | 7279 ft | 283 kts | 191° |
| 2026-04-30 03:47 | -33.84633 | 151.14523 | 7114 ft | 284 kts | 192° |
| 2026-04-30 03:48 | -33.86573 | 151.13947 | 6961 ft | 283 kts | 193° |
| 2026-04-30 03:48 | -33.88482 | 151.13385 | 6806 ft | 281 kts | 192° |
| 2026-04-30 03:48 | -33.90381 | 151.12832 | 6655 ft | 281 kts | 192° |
| 2026-04-30 03:48 | -33.92277 | 151.12282 | 6493 ft | 280 kts | 192° |
| 2026-04-30 03:49 | -33.94148 | 151.11741 | 6338 ft | 280 kts | 192° |
| 2026-04-30 03:49 | -33.96044 | 151.11194 | 6186 ft | 279 kts | 192° |
| 2026-04-30 03:49 | -33.97935 | 151.10648 | 6037 ft | 279 kts | 192° |
| 2026-04-30 03:49 | -33.99821 | 151.10102 | 5886 ft | 278 kts | 192° |
| 2026-04-30 03:50 | -34.01705 | 151.09557 | 5729 ft | 278 kts | 192° |
| 2026-04-30 03:50 | -34.03585 | 151.09013 | 5587 ft | 278 kts | 192° |
| 2026-04-30 03:50 | -34.05468 | 151.08469 | 5425 ft | 277 kts | 192° |
| 2026-04-30 03:50 | -34.07349 | 151.07972 | 5271 ft | 277 kts | 187° |
| 2026-04-30 03:51 | -34.09259 | 151.08028 | 5128 ft | 274 kts | 168° |
| 2026-04-30 03:51 | -34.11130 | 151.08486 | 4972 ft | 275 kts | 166° |
| 2026-04-30 03:51 | -34.12998 | 151.08990 | 4820 ft | 275 kts | 166° |
| 2026-04-30 03:51 | -34.14865 | 151.09487 | 4660 ft | 275 kts | 166° |
| 2026-04-30 03:52 | -34.16730 | 151.09978 | 4528 ft | 274 kts | 166° |
| 2026-04-30 03:52 | -34.18596 | 151.10465 | 4374 ft | 274 kts | 166° |
| 2026-04-30 03:52 | -34.20461 | 151.10956 | 4238 ft | 274 kts | 166° |
| 2026-04-30 03:52 | -34.22350 | 151.11456 | 4167 ft | 274 kts | 166° |
| 2026-04-30 03:53 | -34.24145 | 151.12164 | 4101 ft | 271 kts | 148° |
| 2026-04-30 03:53 | -34.25510 | 151.13669 | 4063 ft | 265 kts | 121° |
| 2026-04-30 03:53 | -34.26144 | 151.15715 | 4020 ft | 259 kts | 96° |
| 2026-04-30 03:53 | -34.26299 | 151.17883 | 3825 ft | 259 kts | 89° |
| 2026-04-30 03:54 | -34.26248 | 151.20049 | 3397 ft | 257 kts | 82° |
| 2026-04-30 03:54 | -34.25825 | 151.22113 | 3091 ft | 251 kts | 65° |
| 2026-04-30 03:54 | -34.24853 | 151.23842 | 3011 ft | 249 kts | 43° |
| 2026-04-30 03:54 | -34.23375 | 151.24871 | 3009 ft | 248 kts | 13° |
| 2026-04-30 03:55 | -34.21681 | 151.24789 | 3014 ft | 249 kts | 349° |
| 2026-04-30 03:55 | -34.19991 | 151.24279 | 3004 ft | 251 kts | 347° |
| 2026-04-30 03:55 | -34.18348 | 151.23785 | 3009 ft | 234 kts | 349° |
| 2026-04-30 03:55 | -34.16815 | 151.23375 | 3010 ft | 216 kts | 349° |
| 2026-04-30 03:56 | -34.15404 | 151.23009 | 3009 ft | 199 kts | 350° |
| 2026-04-30 03:56 | -34.14074 | 151.22664 | 3007 ft | 193 kts | 350° |
| 2026-04-30 03:56 | -34.12781 | 151.22328 | 3020 ft | 177 kts | 350° |
| 2026-04-30 03:56 | -34.11562 | 151.22011 | 3015 ft | 180 kts | 350° |
| 2026-04-30 03:57 | -34.10351 | 151.21696 | 2826 ft | 180 kts | 350° |
| 2026-04-30 03:57 | -34.09301 | 151.21423 | 2635 ft | 178 kts | 350° |
| 2026-04-30 03:57 | -34.08090 | 151.21106 | 2374 ft | 177 kts | 350° |
| 2026-04-30 03:57 | -34.06882 | 151.20791 | 2123 ft | 178 kts | 350° |
| 2026-04-30 03:58 | -34.05670 | 151.20474 | 1871 ft | 179 kts | 350° |
| 2026-04-30 03:58 | -34.04452 | 151.20156 | 1652 ft | 177 kts | 349° |
| 2026-04-30 03:58 | -34.03268 | 151.19847 | 1410 ft | 172 kts | 350° |
| 2026-04-30 03:58 | -34.02121 | 151.19549 | 1175 ft | 164 kts | 349° |
| 2026-04-30 03:59 | -34.01045 | 151.19268 | 968 ft | 150 kts | 350° |
| 2026-04-30 03:59 | -34.00071 | 151.19014 | 794 ft | 139 kts | 350° |
| 2026-04-30 03:59 | -33.99140 | 151.18772 | 626 ft | 136 kts | 350° |
| 2026-04-30 03:59 | -33.98211 | 151.18523 | 388 ft | 136 kts | 349° |
| 2026-04-30 04:00 | -33.97290 | 151.18278 | 216 ft | 135 kts | 351° |
| 2026-04-30 04:00 | -33.96364 | 151.18050 | 90 ft | 137 kts | 350° |
| 2026-04-30 04:00 | -33.95454 | 151.17817 | 35 ft | 118 kts | 348° |
| 2026-04-30 04:00 | -33.94902 | 151.17672 | 35 ft | 46 kts | 348° |
| 2026-04-30 04:01 | -33.94607 | 151.17585 | 36 ft | 42 kts | 339° |
| 2026-04-30 04:01 | -33.94388 | 151.17423 | 36 ft | 16 kts | 317° |
| 2026-04-30 04:01 | -33.94380 | 151.17414 | 36 ft | 0 kts | 316° |
| 2026-04-30 04:02 | -33.94327 | 151.17358 | 36 ft | 13 kts | 320° |
| 2026-04-30 04:02 | -33.94253 | 151.17300 | 35 ft | 13 kts | 336° |
| 2026-04-30 04:02 | -33.94168 | 151.17277 | 34 ft | 12 kts | 348° |
| 2026-04-30 04:02 | -33.94091 | 151.17257 | 35 ft | 11 kts | 347° |
| 2026-04-30 04:03 | -33.94022 | 151.17238 | 35 ft | 10 kts | 347° |
| 2026-04-30 04:03 | -33.93958 | 151.17221 | 35 ft | 9 kts | 347° |
| 2026-04-30 04:03 | -33.93898 | 151.17205 | 35 ft | 9 kts | 347° |
| 2026-04-30 04:03 | -33.93840 | 151.17190 | 35 ft | 8 kts | 347° |
| 2026-04-30 04:04 | -33.93787 | 151.17176 | 35 ft | 8 kts | 347° |
| 2026-04-30 04:04 | -33.93726 | 151.17160 | 35 ft | 10 kts | 348° |
| 2026-04-30 04:04 | -33.93655 | 151.17143 | 35 ft | 11 kts | 348° |
| 2026-04-30 04:04 | -33.93574 | 151.17122 | 35 ft | 13 kts | 348° |
| 2026-04-30 04:05 | -33.93503 | 151.17070 | 35 ft | 12 kts | 289° |
| 2026-04-30 04:05 | -33.93509 | 151.17000 | 36 ft | 13 kts | 256° |
| 2026-04-30 04:05 | -33.93452 | 151.16908 | 36 ft | 12 kts | 348° |
| 2026-04-30 04:05 | -33.93389 | 151.16886 | 36 ft | 6 kts | 322° |
| 2026-04-30 04:06 | -33.93391 | 151.16832 | 36 ft | 9 kts | 257° |
| 2026-04-30 04:06 | -33.93399 | 151.16790 | 36 ft | 0 kts | 257° |
| 2026-04-30 04:06 | -33.93400 | 151.16783 | 36 ft | 4 kts | 259° |
| 2026-04-30 04:06 | -33.93402 | 151.16775 | 36 ft | 0 kts | 258° |
| 2026-04-30 04:07 | -33.93401 | 151.16780 | 36 ft | 0 kts | 258° |
| 2026-04-30 04:12 | -33.94951 | 151.17685 | 34 ft | 55 kts | 348° |
| 2026-04-30 04:12 | -33.95797 | 151.17901 | 38 ft | 136 kts | 351° |
| 2026-04-30 04:12 | -33.95121 | 151.17729 | 33 ft | 82 kts | 347° |
| 2026-04-30 04:12 | -33.94793 | 151.17646 | 35 ft | 44 kts | 348° |